sensor_id;sensor_type;location;lat;lon;timestamp;temperature;humidity
56512;DHT22;42408;53.238;5.686;2024-03-08T00:01:53;2.10;99.90
56512;DHT22;42408;53.238;5.686;2024-03-08T00:04:19;2.10;99.90
56512;DHT22;42408;53.238;5.686;2024-03-08T00:06:44;2.10;99.90
56512;DHT22;42408;53.238;5.686;2024-03-08T00:09:12;2.00;99.90
56512;DHT22;42408;53.238;5.686;2024-03-08T00:11:37;2.00;99.90
56512;DHT22;42408;53.238;5.686;2024-03-08T00:14:03;2.00;99.90
56512;DHT22;42408;53.238;5.686;2024-03-08T00:16:32;2.00;99.90
56512;DHT22;42408;53.238;5.686;2024-03-08T00:18:58;2.00;99.90
56512;DHT22;42408;53.238;5.686;2024-03-08T00:21:24;2.00;99.90
56512;DHT22;42408;53.238;5.686;2024-03-08T00:23:49;2.00;99.90
56512;DHT22;42408;53.238;5.686;2024-03-08T00:26:15;2.00;99.90
56512;DHT22;42408;53.238;5.686;2024-03-08T00:28:41;2.00;99.90
56512;DHT22;42408;53.238;5.686;2024-03-08T00:31:06;2.00;99.90
56512;DHT22;42408;53.238;5.686;2024-03-08T00:33:32;1.90;99.90
56512;DHT22;42408;53.238;5.686;2024-03-08T00:35:58;1.90;99.90
56512;DHT22;42408;53.238;5.686;2024-03-08T00:38:23;1.90;99.90
56512;DHT22;42408;53.238;5.686;2024-03-08T00:40:49;1.90;99.90
56512;DHT22;42408;53.238;5.686;2024-03-08T00:43:15;1.90;99.90
56512;DHT22;42408;53.238;5.686;2024-03-08T00:45:41;1.80;99.90
56512;DHT22;42408;53.238;5.686;2024-03-08T00:48:09;1.80;99.90
56512;DHT22;42408;53.238;5.686;2024-03-08T00:50:36;1.80;99.90
56512;DHT22;42408;53.238;5.686;2024-03-08T00:53:02;1.80;99.90
56512;DHT22;42408;53.238;5.686;2024-03-08T00:55:28;1.70;99.90
56512;DHT22;42408;53.238;5.686;2024-03-08T00:57:55;1.70;99.90
56512;DHT22;42408;53.238;5.686;2024-03-08T01:00:20;1.70;99.90
56512;DHT22;42408;53.238;5.686;2024-03-08T01:02:47;1.70;99.90
56512;DHT22;42408;53.238;5.686;2024-03-08T01:05:13;1.70;99.90
56512;DHT22;42408;53.238;5.686;2024-03-08T01:07:38;1.60;99.90
56512;DHT22;42408;53.238;5.686;2024-03-08T01:10:05;1.60;99.90
56512;DHT22;42408;53.238;5.686;2024-03-08T01:12:35;1.60;99.90
56512;DHT22;42408;53.238;5.686;2024-03-08T01:15:01;1.60;99.90
56512;DHT22;42408;53.238;5.686;2024-03-08T01:17:26;1.60;99.90
56512;DHT22;42408;53.238;5.686;2024-03-08T01:19:52;1.60;99.90
56512;DHT22;42408;53.238;5.686;2024-03-08T01:22:19;1.60;99.90
56512;DHT22;42408;53.238;5.686;2024-03-08T01:24:45;1.50;99.90
56512;DHT22;42408;53.238;5.686;2024-03-08T01:27:10;1.60;99.90
56512;DHT22;42408;53.238;5.686;2024-03-08T01:29:37;1.50;99.90
56512;DHT22;42408;53.238;5.686;2024-03-08T01:32:03;1.60;99.90
56512;DHT22;42408;53.238;5.686;2024-03-08T01:34:29;1.60;99.90
56512;DHT22;42408;53.238;5.686;2024-03-08T01:36:55;1.60;99.90
56512;DHT22;42408;53.238;5.686;2024-03-08T01:39:23;1.60;99.90
56512;DHT22;42408;53.238;5.686;2024-03-08T01:41:49;1.60;99.90
56512;DHT22;42408;53.238;5.686;2024-03-08T01:44:15;1.60;99.90
56512;DHT22;42408;53.238;5.686;2024-03-08T01:46:44;1.60;99.90
56512;DHT22;42408;53.238;5.686;2024-03-08T01:49:12;1.60;99.90
56512;DHT22;42408;53.238;5.686;2024-03-08T01:51:39;1.60;99.90
56512;DHT22;42408;53.238;5.686;2024-03-08T01:54:06;1.60;99.90
56512;DHT22;42408;53.238;5.686;2024-03-08T01:56:32;1.60;99.90
56512;DHT22;42408;53.238;5.686;2024-03-08T01:58:59;1.60;99.90
56512;DHT22;42408;53.238;5.686;2024-03-08T02:01:24;1.60;99.90
56512;DHT22;42408;53.238;5.686;2024-03-08T02:03:51;1.60;99.90
56512;DHT22;42408;53.238;5.686;2024-03-08T02:06:16;1.50;99.90
56512;DHT22;42408;53.238;5.686;2024-03-08T02:08:43;1.50;99.90
56512;DHT22;42408;53.238;5.686;2024-03-08T02:11:09;1.60;99.90
56512;DHT22;42408;53.238;5.686;2024-03-08T02:13:35;1.60;99.90
56512;DHT22;42408;53.238;5.686;2024-03-08T02:16:01;1.60;99.90
56512;DHT22;42408;53.238;5.686;2024-03-08T02:18:29;1.60;99.90
56512;DHT22;42408;53.238;5.686;2024-03-08T02:20:55;1.60;99.90
56512;DHT22;42408;53.238;5.686;2024-03-08T02:23:21;1.60;99.90
56512;DHT22;42408;53.238;5.686;2024-03-08T02:25:48;1.60;99.90
56512;DHT22;42408;53.238;5.686;2024-03-08T02:28:14;1.50;99.90
56512;DHT22;42408;53.238;5.686;2024-03-08T02:30:40;1.50;99.90
56512;DHT22;42408;53.238;5.686;2024-03-08T02:33:06;1.50;99.90
56512;DHT22;42408;53.238;5.686;2024-03-08T02:35:35;1.50;99.90
56512;DHT22;42408;53.238;5.686;2024-03-08T02:38:02;1.50;99.90
56512;DHT22;42408;53.238;5.686;2024-03-08T02:40:29;1.50;99.90
56512;DHT22;42408;53.238;5.686;2024-03-08T02:42:55;1.50;99.90
56512;DHT22;42408;53.238;5.686;2024-03-08T02:45:20;1.50;99.90
56512;DHT22;42408;53.238;5.686;2024-03-08T02:47:46;1.50;99.90
56512;DHT22;42408;53.238;5.686;2024-03-08T02:50:12;1.50;99.90
56512;DHT22;42408;53.238;5.686;2024-03-08T02:52:44;1.40;99.90
56512;DHT22;42408;53.238;5.686;2024-03-08T02:55:12;1.40;99.90
56512;DHT22;42408;53.238;5.686;2024-03-08T02:57:41;1.50;99.90
56512;DHT22;42408;53.238;5.686;2024-03-08T03:00:07;1.40;99.90
56512;DHT22;42408;53.238;5.686;2024-03-08T03:02:35;1.40;99.90
56512;DHT22;42408;53.238;5.686;2024-03-08T03:05:00;1.40;99.90
56512;DHT22;42408;53.238;5.686;2024-03-08T03:07:31;1.50;99.90
56512;DHT22;42408;53.238;5.686;2024-03-08T03:09:56;1.50;99.90
56512;DHT22;42408;53.238;5.686;2024-03-08T03:12:22;1.40;99.90
56512;DHT22;42408;53.238;5.686;2024-03-08T03:14:48;1.40;99.90
56512;DHT22;42408;53.238;5.686;2024-03-08T03:17:13;1.40;99.90
56512;DHT22;42408;53.238;5.686;2024-03-08T03:19:42;1.40;99.90
56512;DHT22;42408;53.238;5.686;2024-03-08T03:22:09;1.50;99.90
56512;DHT22;42408;53.238;5.686;2024-03-08T03:24:36;1.40;99.90
56512;DHT22;42408;53.238;5.686;2024-03-08T03:27:04;1.40;99.90
56512;DHT22;42408;53.238;5.686;2024-03-08T03:29:39;1.40;99.90
56512;DHT22;42408;53.238;5.686;2024-03-08T03:32:08;1.40;99.90
56512;DHT22;42408;53.238;5.686;2024-03-08T03:34:34;1.40;99.90
56512;DHT22;42408;53.238;5.686;2024-03-08T03:37:03;1.40;99.90
56512;DHT22;42408;53.238;5.686;2024-03-08T03:39:30;1.60;99.90
56512;DHT22;42408;53.238;5.686;2024-03-08T03:42:00;1.40;99.90
56512;DHT22;42408;53.238;5.686;2024-03-08T03:44:28;1.30;99.90
56512;DHT22;42408;53.238;5.686;2024-03-08T03:46:53;1.30;99.90
56512;DHT22;42408;53.238;5.686;2024-03-08T03:49:19;1.30;99.90
56512;DHT22;42408;53.238;5.686;2024-03-08T03:51:45;1.30;99.90
56512;DHT22;42408;53.238;5.686;2024-03-08T03:54:12;1.30;99.90
56512;DHT22;42408;53.238;5.686;2024-03-08T03:56:38;1.30;99.90
56512;DHT22;42408;53.238;5.686;2024-03-08T03:59:05;1.30;99.90
56512;DHT22;42408;53.238;5.686;2024-03-08T04:01:32;1.30;99.90
56512;DHT22;42408;53.238;5.686;2024-03-08T04:03:58;1.30;99.90
56512;DHT22;42408;53.238;5.686;2024-03-08T04:06:23;1.30;99.90
56512;DHT22;42408;53.238;5.686;2024-03-08T04:08:49;1.30;99.90
56512;DHT22;42408;53.238;5.686;2024-03-08T04:11:15;1.30;99.90
56512;DHT22;42408;53.238;5.686;2024-03-08T04:13:43;1.20;99.90
56512;DHT22;42408;53.238;5.686;2024-03-08T04:16:08;1.20;99.90
56512;DHT22;42408;53.238;5.686;2024-03-08T04:18:36;1.30;99.90
56512;DHT22;42408;53.238;5.686;2024-03-08T04:21:07;1.20;99.90
56512;DHT22;42408;53.238;5.686;2024-03-08T04:23:34;1.20;99.90
56512;DHT22;42408;53.238;5.686;2024-03-08T04:26:02;1.20;99.90
56512;DHT22;42408;53.238;5.686;2024-03-08T04:28:28;1.20;99.90
56512;DHT22;42408;53.238;5.686;2024-03-08T04:30:54;1.30;99.90
56512;DHT22;42408;53.238;5.686;2024-03-08T04:33:20;1.30;99.90
56512;DHT22;42408;53.238;5.686;2024-03-08T04:35:46;1.30;99.90
56512;DHT22;42408;53.238;5.686;2024-03-08T04:38:12;1.20;99.90
56512;DHT22;42408;53.238;5.686;2024-03-08T04:40:38;1.30;99.90
56512;DHT22;42408;53.238;5.686;2024-03-08T04:43:04;1.30;99.90
56512;DHT22;42408;53.238;5.686;2024-03-08T04:45:29;1.30;99.90
56512;DHT22;42408;53.238;5.686;2024-03-08T04:47:55;1.30;99.90
56512;DHT22;42408;53.238;5.686;2024-03-08T04:50:20;1.30;99.90
56512;DHT22;42408;53.238;5.686;2024-03-08T04:52:46;1.30;99.90
56512;DHT22;42408;53.238;5.686;2024-03-08T04:55:13;1.30;99.90
56512;DHT22;42408;53.238;5.686;2024-03-08T04:57:38;1.30;99.90
56512;DHT22;42408;53.238;5.686;2024-03-08T05:00:04;1.40;99.90
56512;DHT22;42408;53.238;5.686;2024-03-08T05:02:39;1.40;99.90
56512;DHT22;42408;53.238;5.686;2024-03-08T05:05:06;1.40;99.90
56512;DHT22;42408;53.238;5.686;2024-03-08T05:07:31;1.40;99.90
56512;DHT22;42408;53.238;5.686;2024-03-08T05:09:58;1.30;99.90
56512;DHT22;42408;53.238;5.686;2024-03-08T05:12:24;1.40;99.90
56512;DHT22;42408;53.238;5.686;2024-03-08T05:14:50;1.40;99.90
56512;DHT22;42408;53.238;5.686;2024-03-08T05:17:16;1.40;99.90
56512;DHT22;42408;53.238;5.686;2024-03-08T05:19:42;1.40;99.90
56512;DHT22;42408;53.238;5.686;2024-03-08T05:22:09;1.40;99.90
56512;DHT22;42408;53.238;5.686;2024-03-08T05:24:34;1.30;99.90
56512;DHT22;42408;53.238;5.686;2024-03-08T05:27:01;1.30;99.90
56512;DHT22;42408;53.238;5.686;2024-03-08T05:29:28;1.30;99.90
56512;DHT22;42408;53.238;5.686;2024-03-08T05:31:54;1.30;99.90
56512;DHT22;42408;53.238;5.686;2024-03-08T05:34:20;1.30;99.90
56512;DHT22;42408;53.238;5.686;2024-03-08T05:36:47;1.30;99.90
56512;DHT22;42408;53.238;5.686;2024-03-08T05:39:15;1.20;99.90
56512;DHT22;42408;53.238;5.686;2024-03-08T05:41:41;1.20;99.90
56512;DHT22;42408;53.238;5.686;2024-03-08T05:44:07;1.20;99.90
56512;DHT22;42408;53.238;5.686;2024-03-08T05:46:34;1.20;99.90
56512;DHT22;42408;53.238;5.686;2024-03-08T05:49:01;1.10;99.90
56512;DHT22;42408;53.238;5.686;2024-03-08T05:51:34;1.00;99.90
56512;DHT22;42408;53.238;5.686;2024-03-08T05:54:03;1.00;99.90
56512;DHT22;42408;53.238;5.686;2024-03-08T05:56:31;1.10;99.90
56512;DHT22;42408;53.238;5.686;2024-03-08T05:58:56;1.10;99.90
56512;DHT22;42408;53.238;5.686;2024-03-08T06:01:24;1.10;99.90
56512;DHT22;42408;53.238;5.686;2024-03-08T06:03:50;1.00;99.90
56512;DHT22;42408;53.238;5.686;2024-03-08T06:06:15;1.10;99.90
56512;DHT22;42408;53.238;5.686;2024-03-08T06:08:41;1.10;99.90
56512;DHT22;42408;53.238;5.686;2024-03-08T06:11:09;1.10;99.90
56512;DHT22;42408;53.238;5.686;2024-03-08T06:13:35;1.00;99.90
56512;DHT22;42408;53.238;5.686;2024-03-08T06:16:01;1.00;99.90
56512;DHT22;42408;53.238;5.686;2024-03-08T06:18:30;1.00;99.90
56512;DHT22;42408;53.238;5.686;2024-03-08T06:20:56;1.00;99.90
56512;DHT22;42408;53.238;5.686;2024-03-08T06:23:22;1.00;99.90
56512;DHT22;42408;53.238;5.686;2024-03-08T06:25:48;1.00;99.90
56512;DHT22;42408;53.238;5.686;2024-03-08T06:28:14;1.00;99.90
56512;DHT22;42408;53.238;5.686;2024-03-08T06:30:40;1.00;99.90
56512;DHT22;42408;53.238;5.686;2024-03-08T06:33:06;1.10;99.90
56512;DHT22;42408;53.238;5.686;2024-03-08T06:35:32;1.10;99.90
56512;DHT22;42408;53.238;5.686;2024-03-08T06:37:58;1.10;99.90
56512;DHT22;42408;53.238;5.686;2024-03-08T06:40:24;1.10;99.90
56512;DHT22;42408;53.238;5.686;2024-03-08T06:42:50;1.10;99.90
56512;DHT22;42408;53.238;5.686;2024-03-08T06:45:17;1.20;99.90
56512;DHT22;42408;53.238;5.686;2024-03-08T06:47:46;1.30;99.90
56512;DHT22;42408;53.238;5.686;2024-03-08T06:50:12;1.40;99.90
56512;DHT22;42408;53.238;5.686;2024-03-08T06:52:38;1.50;99.90
56512;DHT22;42408;53.238;5.686;2024-03-08T06:55:04;1.50;99.90
56512;DHT22;42408;53.238;5.686;2024-03-08T06:57:31;1.60;99.90
56512;DHT22;42408;53.238;5.686;2024-03-08T06:59:57;1.70;99.90
56512;DHT22;42408;53.238;5.686;2024-03-08T07:02:23;1.70;99.90
56512;DHT22;42408;53.238;5.686;2024-03-08T07:04:51;1.70;99.90
56512;DHT22;42408;53.238;5.686;2024-03-08T07:07:16;1.70;99.90
56512;DHT22;42408;53.238;5.686;2024-03-08T07:09:45;1.70;99.90
56512;DHT22;42408;53.238;5.686;2024-03-08T07:12:11;1.80;99.90
56512;DHT22;42408;53.238;5.686;2024-03-08T07:14:39;1.90;99.90
56512;DHT22;42408;53.238;5.686;2024-03-08T07:17:07;1.90;99.90
56512;DHT22;42408;53.238;5.686;2024-03-08T07:19:34;2.10;99.90
56512;DHT22;42408;53.238;5.686;2024-03-08T07:22:00;2.20;99.90
56512;DHT22;42408;53.238;5.686;2024-03-08T07:24:29;2.20;99.90
56512;DHT22;42408;53.238;5.686;2024-03-08T07:27:13;2.30;99.90
56512;DHT22;42408;53.238;5.686;2024-03-08T07:29:38;2.50;99.90
56512;DHT22;42408;53.238;5.686;2024-03-08T07:32:04;2.70;99.90
56512;DHT22;42408;53.238;5.686;2024-03-08T07:34:45;2.80;99.90
56512;DHT22;42408;53.238;5.686;2024-03-08T07:37:10;3.00;99.90
56512;DHT22;42408;53.238;5.686;2024-03-08T07:39:37;3.20;99.90
56512;DHT22;42408;53.238;5.686;2024-03-08T07:42:04;3.40;99.90
56512;DHT22;42408;53.238;5.686;2024-03-08T07:44:29;3.50;99.90
56512;DHT22;42408;53.238;5.686;2024-03-08T07:46:56;3.70;99.90
56512;DHT22;42408;53.238;5.686;2024-03-08T07:49:22;3.80;99.90
56512;DHT22;42408;53.238;5.686;2024-03-08T07:51:47;3.90;99.90
56512;DHT22;42408;53.238;5.686;2024-03-08T07:54:14;3.90;99.90
56512;DHT22;42408;53.238;5.686;2024-03-08T07:56:40;3.90;99.90
56512;DHT22;42408;53.238;5.686;2024-03-08T07:59:06;4.00;99.90
56512;DHT22;42408;53.238;5.686;2024-03-08T08:01:32;4.00;99.90
56512;DHT22;42408;53.238;5.686;2024-03-08T08:03:59;3.90;99.90
56512;DHT22;42408;53.238;5.686;2024-03-08T08:06:26;4.00;99.90
56512;DHT22;42408;53.238;5.686;2024-03-08T08:08:52;4.00;99.90
56512;DHT22;42408;53.238;5.686;2024-03-08T08:11:18;4.10;99.90
56512;DHT22;42408;53.238;5.686;2024-03-08T08:13:44;4.20;99.90
56512;DHT22;42408;53.238;5.686;2024-03-08T08:16:09;4.30;99.90
56512;DHT22;42408;53.238;5.686;2024-03-08T08:18:38;4.30;99.90
56512;DHT22;42408;53.238;5.686;2024-03-08T08:21:05;4.50;99.90
56512;DHT22;42408;53.238;5.686;2024-03-08T08:23:32;4.50;99.90
56512;DHT22;42408;53.238;5.686;2024-03-08T08:25:57;4.60;99.90
56512;DHT22;42408;53.238;5.686;2024-03-08T08:28:23;4.70;99.90
56512;DHT22;42408;53.238;5.686;2024-03-08T08:30:50;4.80;99.90
56512;DHT22;42408;53.238;5.686;2024-03-08T08:33:16;5.00;99.90
56512;DHT22;42408;53.238;5.686;2024-03-08T08:35:41;5.20;99.90
56512;DHT22;42408;53.238;5.686;2024-03-08T08:38:08;5.30;99.90
56512;DHT22;42408;53.238;5.686;2024-03-08T08:40:34;5.40;99.90
56512;DHT22;42408;53.238;5.686;2024-03-08T08:43:01;5.50;99.90
56512;DHT22;42408;53.238;5.686;2024-03-08T08:45:30;5.60;99.90
56512;DHT22;42408;53.238;5.686;2024-03-08T08:47:56;5.70;99.90
56512;DHT22;42408;53.238;5.686;2024-03-08T08:50:21;5.70;99.90
56512;DHT22;42408;53.238;5.686;2024-03-08T08:52:50;5.70;99.90
56512;DHT22;42408;53.238;5.686;2024-03-08T08:55:16;5.80;99.90
56512;DHT22;42408;53.238;5.686;2024-03-08T08:57:46;5.80;99.90
56512;DHT22;42408;53.238;5.686;2024-03-08T09:00:13;5.90;99.90
56512;DHT22;42408;53.238;5.686;2024-03-08T09:02:41;6.00;99.90
56512;DHT22;42408;53.238;5.686;2024-03-08T09:05:07;6.10;99.90
56512;DHT22;42408;53.238;5.686;2024-03-08T09:07:36;6.20;99.90
56512;DHT22;42408;53.238;5.686;2024-03-08T09:10:03;6.30;99.90
56512;DHT22;42408;53.238;5.686;2024-03-08T09:12:29;6.30;99.90
56512;DHT22;42408;53.238;5.686;2024-03-08T09:14:55;6.40;99.90
56512;DHT22;42408;53.238;5.686;2024-03-08T09:17:20;6.40;99.90
56512;DHT22;42408;53.238;5.686;2024-03-08T09:19:49;6.60;99.90
56512;DHT22;42408;53.238;5.686;2024-03-08T09:22:15;6.60;99.90
56512;DHT22;42408;53.238;5.686;2024-03-08T09:24:41;6.80;99.90
56512;DHT22;42408;53.238;5.686;2024-03-08T09:27:08;6.80;99.90
56512;DHT22;42408;53.238;5.686;2024-03-08T09:29:35;7.00;99.90
56512;DHT22;42408;53.238;5.686;2024-03-08T09:32:01;7.00;99.90
56512;DHT22;42408;53.238;5.686;2024-03-08T09:34:26;7.10;99.90
56512;DHT22;42408;53.238;5.686;2024-03-08T09:36:52;7.10;99.90
56512;DHT22;42408;53.238;5.686;2024-03-08T09:39:18;7.20;99.90
56512;DHT22;42408;53.238;5.686;2024-03-08T09:41:46;7.30;99.90
56512;DHT22;42408;53.238;5.686;2024-03-08T09:44:15;7.30;99.90
56512;DHT22;42408;53.238;5.686;2024-03-08T09:46:42;7.20;99.90
56512;DHT22;42408;53.238;5.686;2024-03-08T09:49:08;7.20;99.90
56512;DHT22;42408;53.238;5.686;2024-03-08T09:51:34;7.10;99.90
56512;DHT22;42408;53.238;5.686;2024-03-08T09:54:03;7.20;99.90
56512;DHT22;42408;53.238;5.686;2024-03-08T09:56:35;7.30;99.90
56512;DHT22;42408;53.238;5.686;2024-03-08T09:59:04;7.40;99.90
56512;DHT22;42408;53.238;5.686;2024-03-08T10:01:54;7.50;99.90
56512;DHT22;42408;53.238;5.686;2024-03-08T10:04:24;7.50;99.90
56512;DHT22;42408;53.238;5.686;2024-03-08T10:06:51;7.60;99.90
56512;DHT22;42408;53.238;5.686;2024-03-08T10:09:17;7.60;99.90
56512;DHT22;42408;53.238;5.686;2024-03-08T10:11:44;7.70;99.90
56512;DHT22;42408;53.238;5.686;2024-03-08T10:14:15;7.70;99.90
56512;DHT22;42408;53.238;5.686;2024-03-08T10:16:42;7.80;99.90
56512;DHT22;42408;53.238;5.686;2024-03-08T10:19:07;7.90;99.90
56512;DHT22;42408;53.238;5.686;2024-03-08T10:21:33;8.00;99.90
56512;DHT22;42408;53.238;5.686;2024-03-08T10:23:59;7.90;99.90
56512;DHT22;42408;53.238;5.686;2024-03-08T10:26:25;8.00;99.90
56512;DHT22;42408;53.238;5.686;2024-03-08T10:28:53;8.00;99.90
56512;DHT22;42408;53.238;5.686;2024-03-08T10:31:19;8.00;99.90
56512;DHT22;42408;53.238;5.686;2024-03-08T10:33:48;7.90;99.90
56512;DHT22;42408;53.238;5.686;2024-03-08T10:36:15;8.00;99.90
56512;DHT22;42408;53.238;5.686;2024-03-08T10:38:42;8.10;99.90
56512;DHT22;42408;53.238;5.686;2024-03-08T10:41:12;8.10;99.90
56512;DHT22;42408;53.238;5.686;2024-03-08T10:47:00;8.10;99.90
56512;DHT22;42408;53.238;5.686;2024-03-08T10:49:38;8.20;99.90
56512;DHT22;42408;53.238;5.686;2024-03-08T10:52:05;8.20;99.90
56512;DHT22;42408;53.238;5.686;2024-03-08T10:54:34;8.20;99.90
56512;DHT22;42408;53.238;5.686;2024-03-08T10:57:05;8.40;99.90
56512;DHT22;42408;53.238;5.686;2024-03-08T10:59:32;8.50;99.90
56512;DHT22;42408;53.238;5.686;2024-03-08T11:01:59;8.60;99.90
56512;DHT22;42408;53.238;5.686;2024-03-08T11:04:25;8.60;99.90
56512;DHT22;42408;53.238;5.686;2024-03-08T11:06:51;8.50;99.90
56512;DHT22;42408;53.238;5.686;2024-03-08T11:09:36;8.50;99.90
56512;DHT22;42408;53.238;5.686;2024-03-08T11:12:35;8.50;99.90
56512;DHT22;42408;53.238;5.686;2024-03-08T11:15:11;8.60;99.90
56512;DHT22;42408;53.238;5.686;2024-03-08T11:20:13;8.70;99.90
56512;DHT22;42408;53.238;5.686;2024-03-08T11:22:42;8.80;99.90
56512;DHT22;42408;53.238;5.686;2024-03-08T11:25:37;8.80;99.90
56512;DHT22;42408;53.238;5.686;2024-03-08T11:28:23;8.80;99.90
56512;DHT22;42408;53.238;5.686;2024-03-08T11:33:26;8.90;99.90
56512;DHT22;42408;53.238;5.686;2024-03-08T11:35:57;9.00;99.90
56512;DHT22;42408;53.238;5.686;2024-03-08T11:38:29;9.00;99.90
56512;DHT22;42408;53.238;5.686;2024-03-08T11:40:57;8.90;99.90
56512;DHT22;42408;53.238;5.686;2024-03-08T11:43:22;8.80;99.90
56512;DHT22;42408;53.238;5.686;2024-03-08T11:45:48;9.00;99.90
56512;DHT22;42408;53.238;5.686;2024-03-08T11:48:14;9.00;99.90
56512;DHT22;42408;53.238;5.686;2024-03-08T11:50:40;9.10;99.90
56512;DHT22;42408;53.238;5.686;2024-03-08T11:53:05;9.20;99.90
56512;DHT22;42408;53.238;5.686;2024-03-08T11:55:34;9.10;99.90
56512;DHT22;42408;53.238;5.686;2024-03-08T11:58:05;9.00;99.90
56512;DHT22;42408;53.238;5.686;2024-03-08T12:00:33;9.20;99.90
56512;DHT22;42408;53.238;5.686;2024-03-08T12:03:06;9.30;99.90
56512;DHT22;42408;53.238;5.686;2024-03-08T12:05:33;9.30;99.90
56512;DHT22;42408;53.238;5.686;2024-03-08T12:08:02;9.30;99.90
56512;DHT22;42408;53.238;5.686;2024-03-08T12:10:28;9.40;99.90
56512;DHT22;42408;53.238;5.686;2024-03-08T12:12:55;9.50;99.90
56512;DHT22;42408;53.238;5.686;2024-03-08T12:15:23;9.40;99.90
56512;DHT22;42408;53.238;5.686;2024-03-08T12:17:53;9.40;99.90
56512;DHT22;42408;53.238;5.686;2024-03-08T12:20:22;9.40;99.90
56512;DHT22;42408;53.238;5.686;2024-03-08T12:22:49;9.50;99.90
56512;DHT22;42408;53.238;5.686;2024-03-08T12:25:14;9.60;99.90
56512;DHT22;42408;53.238;5.686;2024-03-08T12:27:41;9.70;99.90
56512;DHT22;42408;53.238;5.686;2024-03-08T12:30:24;9.70;99.90
56512;DHT22;42408;53.238;5.686;2024-03-08T12:33:01;9.60;99.90
56512;DHT22;42408;53.238;5.686;2024-03-08T12:35:28;9.70;99.90
56512;DHT22;42408;53.238;5.686;2024-03-08T12:37:56;9.60;99.90
56512;DHT22;42408;53.238;5.686;2024-03-08T12:40:28;9.70;99.90
56512;DHT22;42408;53.238;5.686;2024-03-08T12:43:01;9.70;99.90
56512;DHT22;42408;53.238;5.686;2024-03-08T12:45:28;9.70;99.90
56512;DHT22;42408;53.238;5.686;2024-03-08T12:47:54;9.70;99.90
56512;DHT22;42408;53.238;5.686;2024-03-08T12:50:20;9.70;99.90
56512;DHT22;42408;53.238;5.686;2024-03-08T12:52:47;9.70;99.90
56512;DHT22;42408;53.238;5.686;2024-03-08T12:55:14;9.70;99.90
56512;DHT22;42408;53.238;5.686;2024-03-08T12:57:42;9.70;99.90
56512;DHT22;42408;53.238;5.686;2024-03-08T13:00:08;9.80;99.90
56512;DHT22;42408;53.238;5.686;2024-03-08T13:02:39;9.90;99.90
56512;DHT22;42408;53.238;5.686;2024-03-08T13:05:05;10.00;99.90
56512;DHT22;42408;53.238;5.686;2024-03-08T13:07:31;9.90;99.90
56512;DHT22;42408;53.238;5.686;2024-03-08T13:09:57;9.90;99.90
56512;DHT22;42408;53.238;5.686;2024-03-08T13:12:25;10.00;99.90
56512;DHT22;42408;53.238;5.686;2024-03-08T13:14:51;10.20;99.90
56512;DHT22;42408;53.238;5.686;2024-03-08T13:17:17;10.10;99.90
56512;DHT22;42408;53.238;5.686;2024-03-08T13:19:46;10.10;99.90
56512;DHT22;42408;53.238;5.686;2024-03-08T13:22:12;10.20;99.90
56512;DHT22;42408;53.238;5.686;2024-03-08T13:24:41;10.20;99.90
56512;DHT22;42408;53.238;5.686;2024-03-08T13:27:09;10.20;99.90
56512;DHT22;42408;53.238;5.686;2024-03-08T13:29:49;10.30;99.90
56512;DHT22;42408;53.238;5.686;2024-03-08T13:32:16;10.30;99.90
56512;DHT22;42408;53.238;5.686;2024-03-08T13:34:46;10.20;99.90
56512;DHT22;42408;53.238;5.686;2024-03-08T13:37:13;10.20;99.90
56512;DHT22;42408;53.238;5.686;2024-03-08T13:39:42;10.20;99.90
56512;DHT22;42408;53.238;5.686;2024-03-08T13:42:18;10.40;99.90
56512;DHT22;42408;53.238;5.686;2024-03-08T13:44:45;10.30;99.90
56512;DHT22;42408;53.238;5.686;2024-03-08T13:47:15;10.20;99.90
56512;DHT22;42408;53.238;5.686;2024-03-08T13:49:40;10.30;99.90
56512;DHT22;42408;53.238;5.686;2024-03-08T13:52:06;10.20;99.90
56512;DHT22;42408;53.238;5.686;2024-03-08T13:54:34;10.30;99.90
56512;DHT22;42408;53.238;5.686;2024-03-08T13:57:04;10.40;99.90
56512;DHT22;42408;53.238;5.686;2024-03-08T13:59:35;10.40;99.90
56512;DHT22;42408;53.238;5.686;2024-03-08T14:02:02;10.40;99.90
56512;DHT22;42408;53.238;5.686;2024-03-08T14:04:28;10.40;99.90
56512;DHT22;42408;53.238;5.686;2024-03-08T14:06:54;10.30;99.90
56512;DHT22;42408;53.238;5.686;2024-03-08T14:09:24;10.20;99.90
56512;DHT22;42408;53.238;5.686;2024-03-08T14:11:51;10.30;99.90
56512;DHT22;42408;53.238;5.686;2024-03-08T14:14:21;10.30;99.90
56512;DHT22;42408;53.238;5.686;2024-03-08T14:16:49;10.30;99.90
56512;DHT22;42408;53.238;5.686;2024-03-08T14:19:18;10.30;99.90
56512;DHT22;42408;53.238;5.686;2024-03-08T14:21:44;10.40;99.90
56512;DHT22;42408;53.238;5.686;2024-03-08T14:24:10;10.40;99.90
56512;DHT22;42408;53.238;5.686;2024-03-08T14:26:35;10.40;99.90
56512;DHT22;42408;53.238;5.686;2024-03-08T14:29:04;10.40;99.90
56512;DHT22;42408;53.238;5.686;2024-03-08T14:31:31;10.40;99.90
56512;DHT22;42408;53.238;5.686;2024-03-08T14:33:56;10.50;99.90
56512;DHT22;42408;53.238;5.686;2024-03-08T14:36:24;10.50;99.90
56512;DHT22;42408;53.238;5.686;2024-03-08T14:38:51;10.50;99.90
56512;DHT22;42408;53.238;5.686;2024-03-08T14:41:16;10.50;99.90
56512;DHT22;42408;53.238;5.686;2024-03-08T14:43:43;10.60;99.90
56512;DHT22;42408;53.238;5.686;2024-03-08T14:46:11;10.50;99.90
56512;DHT22;42408;53.238;5.686;2024-03-08T14:48:43;10.70;99.90
56512;DHT22;42408;53.238;5.686;2024-03-08T14:51:09;10.50;99.90
56512;DHT22;42408;53.238;5.686;2024-03-08T14:53:37;10.60;99.90
56512;DHT22;42408;53.238;5.686;2024-03-08T14:56:07;10.60;99.90
56512;DHT22;42408;53.238;5.686;2024-03-08T14:58:33;10.60;99.90
56512;DHT22;42408;53.238;5.686;2024-03-08T15:00:59;10.60;99.90
56512;DHT22;42408;53.238;5.686;2024-03-08T15:03:26;10.60;99.90
56512;DHT22;42408;53.238;5.686;2024-03-08T15:05:52;10.50;99.90
56512;DHT22;42408;53.238;5.686;2024-03-08T15:08:19;10.40;99.90
56512;DHT22;42408;53.238;5.686;2024-03-08T15:10:46;10.40;99.90
56512;DHT22;42408;53.238;5.686;2024-03-08T15:13:13;10.30;99.90
56512;DHT22;42408;53.238;5.686;2024-03-08T15:15:46;10.30;99.90
56512;DHT22;42408;53.238;5.686;2024-03-08T15:18:13;10.30;99.90
56512;DHT22;42408;53.238;5.686;2024-03-08T15:20:39;10.20;99.90
56512;DHT22;42408;53.238;5.686;2024-03-08T15:23:06;10.20;99.90
56512;DHT22;42408;53.238;5.686;2024-03-08T15:25:34;10.20;99.90
56512;DHT22;42408;53.238;5.686;2024-03-08T15:28:02;10.20;99.90
56512;DHT22;42408;53.238;5.686;2024-03-08T15:30:29;10.10;99.90
56512;DHT22;42408;53.238;5.686;2024-03-08T15:32:56;10.10;99.90
56512;DHT22;42408;53.238;5.686;2024-03-08T15:35:23;10.10;99.90
56512;DHT22;42408;53.238;5.686;2024-03-08T15:37:49;10.00;99.90
56512;DHT22;42408;53.238;5.686;2024-03-08T15:40:15;10.00;99.90
56512;DHT22;42408;53.238;5.686;2024-03-08T15:42:55;10.00;99.90
56512;DHT22;42408;53.238;5.686;2024-03-08T15:45:21;10.00;99.90
56512;DHT22;42408;53.238;5.686;2024-03-08T15:47:49;10.00;99.90
56512;DHT22;42408;53.238;5.686;2024-03-08T15:50:15;9.90;99.90
56512;DHT22;42408;53.238;5.686;2024-03-08T15:52:47;9.90;99.90